Time;durP1;ratioP1;P1;durP2;ratioP2;P2;SDS_P1;SDS_P2;PMS_P1;PMS_P2;Temp;Humidity;BMP_temperature;BMP_pressure;BME280_temperature;BME280_humidity;BME280_pressure;Samples;Min_cycle;Max_cycle;Signal;HPM_P1;HPM_P2
2024/04/13 00:01:43;;;;;;;14.07;8.60;;;13.80;99.90;;;18.58;100.00;101800.94;5381648;26;20432;-75
2024/04/13 00:04:10;;;;;;;12.30;8.60;;;13.90;99.90;;;18.53;100.00;101794.19;5381212;26;20011;-75
2024/04/13 00:06:37;;;;;;;11.52;8.48;;;13.90;99.90;;;18.65;100.00;101801.63;5379558;26;20008;-75
2024/04/13 00:09:04;;;;;;;12.70;8.43;;;13.90;99.90;;;18.50;100.00;101797.44;5380968;26;20000;-75
2024/04/13 00:11:30;;;;;;;12.90;8.63;;;13.80;99.90;;;18.81;100.00;101803.59;5380984;26;20012;-75
2024/04/13 00:13:56;;;;;;;13.55;8.18;;;13.80;99.90;;;18.53;100.00;101799.69;5381650;26;19996;-75
2024/04/13 00:16:21;;;;;;;11.75;8.15;;;13.70;99.90;;;18.57;100.00;101800.06;5380939;26;20001;-75
2024/04/13 00:18:47;;;;;;;11.60;8.32;;;13.60;99.90;;;18.40;100.00;101784.22;5379801;26;19996;-74
2024/04/13 00:21:14;;;;;;;12.60;8.15;;;13.50;99.90;;;18.47;100.00;101797.91;5388113;26;20000;-73
2024/04/13 00:23:42;;;;;;;14.30;8.68;;;13.50;99.90;;;18.40;100.00;101789.75;5381275;26;20344;-73
2024/04/13 00:26:08;;;;;;;14.35;8.68;;;13.40;99.90;;;18.32;100.00;101792.06;5381355;26;20068;-76
2024/04/13 00:28:34;;;;;;;13.98;9.27;;;13.40;99.90;;;18.21;100.00;101791.81;5379565;26;20013;-76
2024/04/13 00:31:00;;;;;;;10.52;8.55;;;13.40;99.90;;;18.20;100.00;101784.59;5377980;26;20032;-74
2024/04/13 00:33:25;;;;;;;16.30;9.48;;;13.40;99.90;;;18.19;100.00;101782.09;5379002;26;20000;-74
2024/04/13 00:35:51;;;;;;;15.23;9.13;;;13.30;99.90;;;18.16;100.00;101780.66;5380268;26;20349;-74
2024/04/13 00:38:17;;;;;;;16.15;9.57;;;13.30;99.90;;;18.24;100.00;101793.25;5380453;26;20012;-75
2024/04/13 00:40:42;;;;;;;15.73;9.57;;;13.30;99.90;;;18.33;100.00;101788.22;5380253;26;20024;-74
2024/04/13 00:43:10;;;;;;;15.38;9.65;;;13.30;99.90;;;18.29;100.00;101798.03;5379245;26;20320;-74
2024/04/13 00:45:45;;;;;;;13.45;8.88;;;13.20;99.90;;;18.16;100.00;101769.59;5379948;26;20001;-74
2024/04/13 00:48:25;;;;;;;15.35;10.10;;;13.20;99.90;;;18.28;100.00;101779.78;5380714;26;20000;-74
2024/04/13 00:51:07;;;;;;;15.93;10.65;;;13.10;99.90;;;18.22;100.00;101782.44;5380097;26;19996;-74
2024/04/13 00:53:37;;;;;;;13.60;9.20;;;13.10;99.90;;;18.19;100.00;101771.06;5379883;26;20004;-73
2024/04/13 00:56:06;;;;;;;18.05;10.45;;;13.20;99.90;;;18.14;100.00;101752.44;5380601;26;20075;-73
2024/04/13 00:58:35;;;;;;;15.05;10.25;;;13.20;99.90;;;18.14;100.00;101763.50;5380522;26;20023;-74
2024/04/13 01:01:03;;;;;;;12.57;9.15;;;13.10;99.90;;;18.28;100.00;101772.38;5380556;26;20077;-73
2024/04/13 01:03:29;;;;;;;17.58;10.65;;;13.10;99.90;;;18.14;100.00;101762.63;5349415;26;19996;-73
2024/04/13 01:05:55;;;;;;;14.48;9.93;;;13.10;99.90;;;17.90;100.00;101760.69;5378827;26;20516;-73
2024/04/13 01:08:21;;;;;;;15.15;10.23;;;13.00;99.90;;;18.01;100.00;101761.81;5379386;26;20069;-74
2024/04/13 01:10:48;;;;;;;14.82;10.25;;;13.00;99.90;;;17.87;100.00;101761.16;5363996;26;20009;-74
2024/04/13 01:13:16;;;;;;;16.70;10.55;;;13.00;99.90;;;18.23;100.00;101756.50;5379505;26;20008;-74
2024/04/13 01:15:42;;;;;;;14.90;10.07;;;13.00;99.90;;;17.86;100.00;101723.63;5354833;26;20015;-74
2024/04/13 01:18:14;;;;;;;17.63;10.90;;;13.00;99.90;;;18.31;100.00;101762.78;5388698;26;20003;-73
2024/04/13 01:20:54;;;;;;;16.70;11.18;;;13.00;99.90;;;18.14;100.00;101744.16;5401672;26;20312;-75
2024/04/13 01:23:23;;;;;;;16.95;10.63;;;13.00;99.90;;;18.35;100.00;101752.91;5380241;26;20000;-76
2024/04/13 01:25:50;;;;;;;16.90;10.75;;;13.10;99.90;;;18.11;100.00;101741.88;5430988;26;19996;-75
2024/04/13 01:28:17;;;;;;;15.35;10.85;;;13.10;99.90;;;18.05;100.00;101749.19;5380883;26;20435;-75
2024/04/13 01:30:44;;;;;;;17.77;11.35;;;13.20;99.90;;;18.23;100.00;101761.22;5371096;26;20071;-75
2024/04/13 01:33:10;;;;;;;15.20;11.48;;;13.20;99.90;;;18.05;100.00;101737.34;5371950;26;20041;-75
2024/04/13 01:35:35;;;;;;;21.00;11.45;;;13.20;99.90;;;18.03;100.00;101750.50;5363185;26;19993;-75
2024/04/13 01:38:01;;;;;;;14.70;10.25;;;13.20;99.90;;;17.95;100.00;101749.75;5449466;26;20040;-74
2024/04/13 01:40:27;;;;;;;17.05;11.00;;;13.20;99.90;;;17.93;100.00;101734.53;5369781;26;20015;-75
2024/04/13 01:42:52;;;;;;;20.42;12.32;;;13.20;99.90;;;17.89;100.00;101733.31;5389134;26;20480;-74
2024/04/13 01:45:18;;;;;;;19.02;10.77;;;13.10;99.90;;;17.95;100.00;101737.91;5377136;26;20012;-74
2024/04/13 01:47:44;;;;;;;15.60;11.40;;;13.20;99.90;;;18.11;100.00;101739.13;5375699;26;20020;-74
2024/04/13 01:50:12;;;;;;;16.35;11.73;;;13.20;99.90;;;18.07;100.00;101741.50;5381846;26;20055;-74
2024/04/13 01:52:38;;;;;;;17.27;12.07;;;13.20;99.90;;;18.00;100.00;101723.34;5372187;26;20008;-75
2024/04/13 01:55:04;;;;;;;21.58;12.30;;;13.10;99.90;;;17.90;100.00;101738.59;5383096;26;19992;-75
2024/04/13 01:57:30;;;;;;;20.67;12.35;;;13.20;99.90;;;17.92;100.00;101741.97;5376954;26;21247;-74
2024/04/13 01:59:55;;;;;;;15.77;11.57;;;13.20;99.90;;;17.68;100.00;101728.16;5408222;26;20003;-75
2024/04/13 02:02:21;;;;;;;19.13;11.52;;;13.20;99.90;;;17.82;100.00;101717.72;5380979;26;20044;-75
2024/04/13 02:04:47;;;;;;;18.20;11.73;;;13.20;99.90;;;17.97;100.00;101730.22;5374826;26;20416;-75
2024/04/13 02:07:14;;;;;;;16.58;12.10;;;13.20;99.90;;;17.79;100.00;101729.25;5382796;26;20020;-75
2024/04/13 02:09:39;;;;;;;18.40;12.52;;;13.20;99.90;;;17.78;100.00;101713.75;5380113;26;19999;-75
2024/04/13 02:12:08;;;;;;;18.63;12.32;;;13.20;99.90;;;17.95;100.00;101738.72;5371849;26;20022;-75
2024/04/13 02:14:34;;;;;;;18.58;11.93;;;13.20;99.90;;;17.92;100.00;101725.41;5375446;26;19996;-76
2024/04/13 02:17:00;;;;;;;17.85;12.55;;;13.20;99.90;;;18.01;100.00;101733.31;5385435;26;20016;-75
2024/04/13 02:19:26;;;;;;;19.05;12.32;;;13.20;99.90;;;17.86;100.00;101723.63;5386075;26;20430;-75
2024/04/13 02:21:51;;;;;;;17.92;12.93;;;13.20;99.90;;;17.85;100.00;101729.34;5380126;26;20001;-75
2024/04/13 02:24:17;;;;;;;19.52;12.63;;;13.20;99.90;;;17.89;100.00;101723.13;5380819;26;20023;-75
2024/04/13 02:26:43;;;;;;;21.25;13.80;;;13.20;99.90;;;17.92;100.00;101724.59;5384111;26;20031;-75
2024/04/13 02:29:08;;;;;;;22.13;13.65;;;13.10;99.90;;;17.68;100.00;101719.06;5378153;26;19996;-75
2024/04/13 02:31:34;;;;;;;19.00;13.48;;;13.10;99.90;;;17.58;100.00;101711.34;5363192;26;20028;-75
2024/04/13 02:34:00;;;;;;;21.70;12.95;;;13.10;99.90;;;17.65;100.00;101725.06;5360630;26;20019;-75
2024/04/13 02:36:26;;;;;;;20.85;12.90;;;13.00;99.90;;;17.40;100.00;101710.38;5365924;26;20009;-76
2024/04/13 02:38:51;;;;;;;21.60;13.65;;;13.10;99.90;;;17.59;100.00;101710.28;5397124;26;20011;-75
2024/04/13 02:41:19;;;;;;;19.15;13.43;;;13.10;99.90;;;17.40;100.00;101701.25;5372294;26;20504;-75
2024/04/13 02:43:44;;;;;;;21.77;13.60;;;13.10;99.90;;;17.46;100.00;101716.00;5394553;26;20074;-75
2024/04/13 02:46:11;;;;;;;21.10;13.57;;;13.00;99.90;;;17.40;100.00;101718.63;5411328;26;20005;-75
2024/04/13 02:48:42;;;;;;;20.58;13.88;;;13.00;99.90;;;17.60;100.00;101711.09;5392525;26;20008;-75
2024/04/13 02:51:10;;;;;;;19.80;13.15;;;13.10;99.90;;;17.60;100.00;101719.38;5366077;26;20011;-75
2024/04/13 02:53:37;;;;;;;21.75;14.30;;;13.10;99.90;;;17.47;100.00;101714.94;5365569;26;20368;-75
2024/04/13 02:56:04;;;;;;;20.60;14.15;;;13.10;99.90;;;17.47;100.00;101703.88;5375659;26;20066;-75
2024/04/13 02:58:30;;;;;;;20.40;13.27;;;13.20;99.90;;;17.52;100.00;101706.81;5359490;26;20011;-75
2024/04/13 03:00:58;;;;;;;19.63;13.48;;;13.20;99.90;;;17.62;100.00;101708.94;5359260;26;19997;-75
2024/04/13 03:03:28;;;;;;;18.95;12.75;;;13.20;99.90;;;17.69;100.00;101693.97;5353477;26;20067;-75
2024/04/13 03:06:04;;;;;;;22.33;13.80;;;13.30;99.90;;;17.81;100.00;101693.97;5355947;26;20429;-74
2024/04/13 03:08:31;;;;;;;18.27;12.23;;;13.30;99.90;;;17.64;100.00;101677.28;5344595;26;20008;-75
2024/04/13 03:10:59;;;;;;;20.33;13.00;;;13.30;99.90;;;17.89;100.00;101689.16;5362977;26;20348;-73
2024/04/13 03:13:25;;;;;;;20.60;12.75;;;13.30;99.90;;;17.71;100.00;101685.47;5375927;26;20345;-73
2024/04/13 03:16:03;;;;;;;17.70;12.43;;;13.40;99.90;;;17.95;100.00;101679.94;5387769;26;20011;-73
2024/04/13 03:18:30;;;;;;;19.60;12.25;;;13.40;99.90;;;17.79;100.00;101693.38;5370049;26;20000;-73
2024/04/13 03:20:57;;;;;;;19.92;12.60;;;13.30;99.90;;;17.69;100.00;101671.88;5381175;26;20455;-74
2024/04/13 03:23:23;;;;;;;19.92;12.50;;;13.40;99.90;;;17.87;100.00;101686.66;5395174;26;20008;-75
2024/04/13 03:25:50;;;;;;;18.60;11.93;;;13.40;99.90;;;17.75;100.00;101683.88;5357830;26;20344;-73
2024/04/13 03:28:18;;;;;;;17.85;11.98;;;13.40;99.90;;;17.76;100.00;101679.19;5375372;26;20000;-75
2024/04/13 03:30:44;;;;;;;18.13;11.52;;;13.40;99.90;;;17.83;100.00;101689.03;5400614;26;20070;-74
2024/04/13 03:33:10;;;;;;;18.10;12.05;;;13.40;99.90;;;17.81;100.00;101682.09;5362111;26;20383;-73
2024/04/13 03:35:37;;;;;;;18.77;12.40;;;13.40;99.90;;;17.95;100.00;101693.72;5357738;26;20004;-73
2024/04/13 03:38:04;;;;;;;17.63;12.27;;;13.50;99.90;;;17.86;100.00;101679.44;5360688;26;20011;-74
2024/04/13 03:40:30;;;;;;;16.67;11.43;;;13.50;99.90;;;17.78;100.00;101693.63;5365616;26;20004;-73
2024/04/13 03:42:55;;;;;;;19.33;12.00;;;13.40;99.90;;;17.73;100.00;101687.97;5360642;26;20430;-73
2024/04/13 03:45:21;;;;;;;22.75;12.73;;;13.40;99.90;;;17.76;100.00;101690.22;5362202;26;20004;-74
2024/04/13 03:47:47;;;;;;;18.90;11.40;;;13.40;99.90;;;18.06;100.00;101684.63;5354992;26;20016;-73
2024/04/13 03:50:13;;;;;;;19.77;12.45;;;13.40;99.90;;;18.04;100.00;101691.47;5369909;26;20008;-73
2024/04/13 03:52:41;;;;;;;18.75;12.00;;;13.40;99.90;;;18.13;100.00;101695.53;5375363;26;19996;-74
2024/04/13 03:55:07;;;;;;;20.67;12.55;;;13.40;99.90;;;17.99;100.00;101689.41;5401440;26;20460;-73
2024/04/13 03:57:33;;;;;;;18.65;11.88;;;13.30;99.90;;;17.99;100.00;101692.16;5381814;26;20513;-75
2024/04/13 03:59:59;;;;;;;17.80;12.00;;;13.30;99.90;;;17.81;100.00;101695.91;5363033;26;20007;-73
2024/04/13 04:02:25;;;;;;;20.23;12.27;;;13.30;99.90;;;17.87;100.00;101692.16;5358572;26;20472;-74
2024/04/13 04:04:51;;;;;;;18.58;11.95;;;13.40;99.90;;;17.90;100.00;101691.69;5364798;26;20011;-73
2024/04/13 04:07:17;;;;;;;18.08;11.65;;;13.40;99.90;;;17.75;100.00;101678.38;5354077;26;20343;-73
2024/04/13 04:09:42;;;;;;;16.00;11.57;;;13.40;99.90;;;17.60;100.00;101667.81;5376985;26;19996;-73
2024/04/13 04:12:09;;;;;;;20.35;13.60;;;13.40;99.90;;;17.93;100.00;101693.97;5367866;26;20066;-73
2024/04/13 04:14:35;;;;;;;17.52;12.25;;;13.40;99.90;;;17.72;100.00;101670.56;5367217;26;19997;-73
2024/04/13 04:17:02;;;;;;;20.27;12.52;;;13.40;99.90;;;17.63;100.00;101678.38;5354741;26;20004;-74
2024/04/13 04:19:28;;;;;;;19.30;11.68;;;13.40;99.90;;;17.72;100.00;101692.66;5368318;26;19997;-74
2024/04/13 04:21:54;;;;;;;16.92;11.57;;;13.40;99.90;;;17.83;100.00;101678.00;5359363;26;20004;-74
2024/04/13 04:24:22;;;;;;;17.60;11.68;;;13.40;99.90;;;17.74;100.00;101686.88;5369245;26;20391;-74
2024/04/13 04:26:49;;;;;;;18.65;10.98;;;13.40;99.90;;;17.78;100.00;101694.44;5390666;26;20308;-74
2024/04/13 04:29:14;;;;;;;19.75;11.75;;;13.40;99.90;;;17.75;100.00;101699.59;5381894;26;20013;-73
2024/04/13 04:31:41;;;;;;;17.92;11.00;;;13.40;99.90;;;17.76;100.00;101702.13;5379349;26;20084;-74
2024/04/13 04:34:08;;;;;;;18.67;10.82;;;13.40;99.90;;;17.60;100.00;101700.06;5383454;26;20007;-74
2024/04/13 04:36:34;;;;;;;18.77;11.70;;;13.40;99.90;;;17.67;100.00;101704.41;5414311;26;20015;-73
2024/04/13 04:39:00;;;;;;;19.95;11.52;;;13.40;99.90;;;17.67;100.00;101704.41;5388209;26;20035;-74
2024/04/13 04:41:26;;;;;;;18.48;11.60;;;13.40;99.90;;;17.71;100.00;101698.41;5390147;26;20343;-74
2024/04/13 04:43:53;;;;;;;19.63;11.52;;;13.40;99.90;;;17.62;100.00;101703.44;5393335;26;19996;-74
2024/04/13 04:46:20;;;;;;;16.50;11.63;;;13.40;99.90;;;17.60;100.00;101698.16;5421029;26;20447;-74
2024/04/13 04:48:49;;;;;;;18.63;11.80;;;13.40;99.90;;;17.74;100.00;101717.22;5387845;26;20090;-73
2024/04/13 04:51:15;;;;;;;18.48;12.10;;;13.40;99.90;;;17.63;100.00;101717.00;5389575;26;20013;-73
2024/04/13 04:53:41;;;;;;;17.50;10.98;;;13.40;99.90;;;17.61;100.00;101723.81;5388513;26;20000;-73
2024/04/13 04:56:07;;;;;;;18.02;11.23;;;13.40;99.90;;;17.79;100.00;101717.38;5383086;26;20009;-74
2024/04/13 04:58:33;;;;;;;20.38;11.63;;;13.50;99.90;;;17.60;100.00;101694.56;5385971;26;20734;-73
2024/04/13 05:00:59;;;;;;;17.13;11.13;;;13.50;99.90;;;17.88;100.00;101709.56;5376227;26;20004;-74
2024/04/13 05:03:24;;;;;;;18.65;11.75;;;13.50;99.90;;;17.83;100.00;101713.06;5402786;26;20018;-74
2024/04/13 05:05:51;;;;;;;14.55;10.80;;;13.50;99.90;;;18.07;100.00;101719.44;5374731;26;20007;-74
2024/04/13 05:08:17;;;;;;;18.60;11.50;;;13.50;99.90;;;18.02;100.00;101721.22;5376195;26;20073;-74
2024/04/13 05:10:43;;;;;;;16.10;11.32;;;13.40;99.90;;;18.00;100.00;101728.88;5382775;26;20003;-75
2024/04/13 05:13:09;;;;;;;17.33;10.75;;;13.40;99.90;;;17.86;100.00;101723.63;5414519;26;19997;-73
2024/04/13 05:15:35;;;;;;;18.50;11.02;;;13.40;99.90;;;17.89;100.00;101727.78;5391064;26;20007;-73
2024/04/13 05:18:04;;;;;;;19.35;11.32;;;13.40;99.90;;;17.98;100.00;101718.91;5392813;26;19996;-74
2024/04/13 05:20:31;;;;;;;17.45;10.70;;;13.40;99.90;;;18.05;100.00;101726.28;5386510;26;20088;-74
2024/04/13 05:22:58;;;;;;;17.95;10.90;;;13.40;99.90;;;17.95;100.00;101721.34;5387731;26;19996;-75
2024/04/13 05:25:27;;;;;;;18.38;10.93;;;13.50;99.90;;;18.08;100.00;101726.63;5387754;26;20008;-75
2024/04/13 05:27:53;;;;;;;20.30;11.02;;;13.50;99.90;;;17.70;100.00;101719.66;5451343;26;20332;-78
2024/04/13 05:30:19;;;;;;;18.40;11.60;;;13.50;99.90;;;17.95;100.00;101721.34;5383121;26;20012;-78
2024/04/13 05:32:44;;;;;;;18.63;10.95;;;13.60;99.90;;;17.94;100.00;101720.47;5367334;26;19996;-77
2024/04/13 05:35:12;;;;;;;16.63;9.93;;;13.70;99.90;;;17.89;100.00;101728.66;5397801;26;20012;-76
2024/04/13 05:37:38;;;;;;;15.73;9.88;;;13.80;99.90;;;18.10;100.00;101712.59;5365085;26;20000;-76
2024/04/13 05:40:04;;;;;;;14.88;10.35;;;13.80;99.90;;;18.33;100.00;101728.28;5382007;26;20073;-77
2024/04/13 05:42:31;;;;;;;13.10;9.27;;;13.90;99.90;;;18.24;100.00;101725.03;5351049;26;20001;-77
2024/04/13 05:44:58;;;;;;;13.00;8.60;;;14.00;99.90;;;18.45;100.00;101731.03;5370501;26;20016;-76
2024/04/13 05:47:24;;;;;;;18.48;9.77;;;14.10;99.90;;;18.38;100.00;101714.56;5364943;26;20315;-76
2024/04/13 05:49:53;;;;;;;15.35;9.15;;;14.10;99.90;;;18.49;100.00;101717.56;5365560;26;19996;-76
2024/04/13 05:52:18;;;;;;;12.48;8.93;;;14.10;99.90;;;18.52;100.00;101715.13;5360622;26;19997;-76
2024/04/13 05:54:44;;;;;;;15.70;8.77;;;14.20;99.90;;;18.66;100.00;101715.69;5365283;26;19996;-77
2024/04/13 05:57:11;;;;;;;15.52;8.77;;;14.30;99.90;;;18.82;99.96;101741.72;5386014;26;19996;-74
2024/04/13 05:59:38;;;;;;;12.32;7.80;;;14.50;99.90;;;19.07;97.50;101737.78;5380167;26;20001;-76
2024/04/13 06:02:04;;;;;;;13.20;7.85;;;14.60;99.90;;;19.15;96.47;101727.44;5382392;26;20332;-77
2024/04/13 06:04:30;;;;;;;14.20;7.57;;;14.70;99.90;;;19.06;96.66;101733.34;5374700;26;20095;-76
2024/04/13 06:06:56;;;;;;;14.45;7.93;;;;;;;19.21;95.03;101737.50;5361669;26;20008;-74
2024/04/13 06:09:22;;;;;;;12.60;8.00;;;;;;;19.37;95.27;101738.59;5364254;26;20012;-76
2024/04/13 06:11:49;;;;;;;12.85;7.70;;;;;;;19.49;93.07;101738.53;5347871;26;20081;-74
2024/04/13 06:14:14;;;;;;;14.13;7.35;;;14.80;99.90;;;19.55;90.99;101734.75;5358090;26;20001;-73
2024/04/13 06:16:40;;;;;;;14.20;7.57;;;15.30;99.90;;;19.83;90.46;101725.53;5404441;26;19997;-75
2024/04/13 06:19:06;;;;;;;12.35;6.70;;;15.40;99.90;;;19.98;88.35;101724.97;5387179;26;20051;-74
2024/04/13 06:21:32;;;;;;;11.77;6.68;;;15.60;99.90;;;20.23;85.64;101723.66;5374617;26;19997;-74
2024/04/13 06:23:58;;;;;;;10.90;6.57;;;15.70;99.90;;;20.07;84.57;101725.38;5367378;26;20001;-74
2024/04/13 06:26:23;;;;;;;10.95;6.18;;;15.80;99.90;;;19.89;85.94;101729.22;5376187;26;20420;-73
2024/04/13 06:28:52;;;;;;;12.27;6.50;;;15.80;99.90;;;20.33;83.64;101719.31;5364261;26;20071;-73
2024/04/13 06:31:19;;;;;;;10.32;6.07;;;15.90;99.90;;;20.32;82.22;101718.50;5364063;26;20000;-74
2024/04/13 06:33:45;;;;;;;9.55;6.03;;;16.00;99.90;;;20.29;80.75;101705.16;5358559;26;20008;-74
2024/04/13 06:36:11;;;;;;;10.00;5.47;;;16.10;99.90;;;20.63;79.49;101702.25;5375081;26;20284;-77
2024/04/13 06:38:38;;;;;;;9.73;5.93;;;16.10;99.90;;;20.63;80.10;101716.09;5352765;26;20008;-76
2024/04/13 06:41:04;;;;;;;11.95;6.47;;;16.20;99.90;;;20.82;77.54;101702.75;5362172;26;20075;-76
2024/04/13 06:43:30;;;;;;;10.63;5.72;;;16.30;99.90;;;20.68;75.71;101702.31;5374718;26;20004;-75
2024/04/13 06:45:56;;;;;;;9.52;5.75;;;16.40;99.90;;;20.81;76.07;101703.00;5355382;26;20002;-77
2024/04/13 06:48:24;;;;;;;8.57;5.35;;;16.40;99.90;;;21.03;76.36;101699.34;5374428;26;20265;-77
2024/04/13 06:50:50;;;;;;;9.75;5.20;;;16.50;99.90;;;21.04;75.28;101701.03;5372735;26;20000;-75
2024/04/13 06:53:16;;;;;;;9.32;5.25;;;16.60;99.90;;;20.96;75.75;101705.13;5362548;26;20007;-75
2024/04/13 06:55:42;;;;;;;8.57;5.00;;;16.70;99.90;;;20.89;73.94;101704.50;5369909;26;20004;-74
2024/04/13 06:58:09;;;;;;;11.82;5.13;;;16.70;99.90;;;20.96;71.98;101689.31;5370078;26;19997;-74
2024/04/13 07:00:35;;;;;;;8.82;4.65;;;16.80;99.90;;;21.36;71.42;101692.75;5359433;26;20001;-75
2024/04/13 07:03:01;;;;;;;7.40;4.75;;;16.90;99.90;;;21.37;71.75;101691.63;5429034;26;19997;-77
2024/04/13 07:05:27;;;;;;;6.38;3.95;;;16.90;99.90;;;21.51;70.06;101692.03;5363357;26;19996;-77
2024/04/13 07:07:53;;;;;;;8.95;5.03;;;17.00;99.90;;;21.36;68.92;101686.38;5360844;26;20336;-77
2024/04/13 07:10:19;;;;;;;8.75;4.63;;;17.10;99.90;;;21.30;70.05;101688.25;5360857;26;20011;-76
2024/04/13 07:12:45;;;;;;;9.10;4.30;;;17.10;99.90;;;21.44;68.15;101694.19;5369136;26;20013;-75
2024/04/13 07:15:10;;;;;;;9.90;4.20;;;17.20;99.90;;;21.46;69.36;101691.13;5385646;26;19992;-76
2024/04/13 07:17:36;;;;;;;7.85;4.20;;;;;;;21.80;67.41;101696.44;5388946;26;20016;-76
2024/04/13 07:20:07;;;;;;;7.68;4.00;;;17.20;99.90;;;21.67;65.50;101692.19;5370198;26;20004;-76
2024/04/13 07:22:33;;;;;;;7.68;4.20;;;17.50;99.90;;;21.69;65.42;101692.75;5369400;26;20064;-77
2024/04/13 07:24:59;;;;;;;7.15;3.65;;;17.60;99.90;;;21.12;68.63;101687.53;5362010;26;20045;-77
2024/04/13 07:27:26;;;;;;;8.18;3.88;;;17.60;99.90;;;21.56;65.46;101669.03;5352459;26;19993;-75
2024/04/13 07:29:51;;;;;;;8.75;4.00;;;17.70;99.90;;;21.27;66.17;101672.94;5373418;26;20006;-75
2024/04/13 07:32:17;;;;;;;7.05;4.15;;;17.80;99.90;;;21.73;63.12;101673.59;5364767;26;20001;-75
2024/04/13 07:34:48;;;;;;;8.73;3.70;;;17.90;99.90;;;21.88;62.38;101667.28;5361138;26;20005;-76
2024/04/13 07:37:14;;;;;;;5.80;3.55;;;18.00;99.90;;;22.26;61.76;101659.72;5357966;26;20012;-76
2024/04/13 07:39:40;;;;;;;7.55;3.35;;;18.10;99.90;;;22.30;60.37;101663.63;5385116;26;20316;-76
2024/04/13 07:42:06;;;;;;;7.65;3.38;;;18.20;99.90;;;22.27;59.91;101664.16;5371342;26;20008;-75
2024/04/13 07:44:35;;;;;;;8.30;3.50;;;18.30;99.90;;;21.71;60.16;101662.78;5367595;26;20036;-75
2024/04/13 07:47:04;;;;;;;8.43;3.80;;;18.30;99.90;;;21.93;59.84;101667.34;5356429;26;20001;-76
2024/04/13 07:49:29;;;;;;;7.28;3.33;;;18.20;99.90;;;22.50;58.81;101668.44;5367650;26;20008;-76
2024/04/13 07:51:55;;;;;;;5.97;3.28;;;18.30;99.90;;;22.21;57.72;101649.41;5371536;26;20000;-75
2024/04/13 07:54:21;;;;;;;6.50;3.45;;;18.40;99.90;;;22.22;57.66;101648.31;5383966;26;20377;-74
2024/04/13 07:56:46;;;;;;;5.82;3.03;;;18.40;99.90;;;22.27;58.34;101661.38;5365964;26;19996;-74
2024/04/13 07:59:12;;;;;;;7.35;3.63;;;18.50;99.90;;;22.74;57.81;101654.03;5359448;26;20008;-74
2024/04/13 08:01:38;;;;;;;6.60;3.15;;;18.70;99.90;;;22.70;56.67;101644.59;5359525;26;20004;-74
2024/04/13 08:04:03;;;;;;;6.90;3.20;;;18.80;99.90;;;22.26;56.37;101645.81;5361370;26;20007;-74
2024/04/13 08:06:29;;;;;;;6.13;2.90;;;18.70;99.90;;;22.53;55.81;101650.38;5366740;26;20003;-74
2024/04/13 08:08:55;;;;;;;5.82;3.00;;;18.70;99.90;;;22.41;56.96;101640.34;5363620;26;20015;-73
2024/04/13 08:11:21;;;;;;;8.00;2.70;;;18.70;99.90;;;22.82;55.87;101653.53;5368026;26;20077;-74
2024/04/13 08:13:46;;;;;;;6.90;3.10;;;18.80;99.90;;;22.80;54.50;101641.81;5393545;26;20079;-74
2024/04/13 08:16:12;;;;;;;5.45;3.00;;;19.00;99.90;;;23.33;53.71;101663.03;5363792;26;20000;-74
2024/04/13 08:18:38;;;;;;;5.40;2.70;;;19.10;99.90;;;22.84;54.15;101650.44;5397536;26;20004;-74
2024/04/13 08:21:04;;;;;;;5.97;2.67;;;19.10;99.90;;;23.18;54.35;101663.00;5366871;26;20000;-74
2024/04/13 08:23:29;;;;;;;4.85;2.50;;;19.20;99.90;;;23.25;54.20;101658.03;5356200;26;20321;-75
2024/04/13 08:26:05;;;;;;;5.03;2.50;;;19.30;99.90;;;23.08;53.95;101653.56;5362279;26;20010;-73
2024/04/13 08:28:30;;;;;;;4.75;2.58;;;19.50;99.90;;;23.70;52.67;101647.09;5377440;26;20011;-75
2024/04/13 08:30:57;;;;;;;6.35;2.83;;;19.60;99.90;;;23.52;53.53;101654.94;5365588;26;20000;-75
2024/04/13 08:33:22;;;;;;;6.95;3.03;;;19.90;99.90;;;23.77;51.69;101646.81;5374441;26;20003;-74
2024/04/13 08:36:03;;;;;;;7.55;2.80;;;19.90;99.90;;;23.58;52.03;101666.91;5363875;26;20001;-75
2024/04/13 08:38:30;;;;;;;4.72;2.55;;;19.90;99.90;;;23.50;51.88;101657.19;5414479;26;20004;-74
2024/04/13 08:40:59;;;;;;;5.10;2.60;;;19.80;99.90;;;23.85;51.98;101662.94;5393615;26;19997;-76
2024/04/13 08:43:25;;;;;;;5.32;2.40;;;20.00;99.90;;;23.73;51.30;101651.28;5366443;26;20004;-78
2024/04/13 08:45:52;;;;;;;5.88;2.25;;;20.00;99.90;;;23.40;51.81;101654.41;5378438;26;20089;-76
2024/04/13 08:48:18;;;;;;;5.07;2.60;;;19.90;99.90;;;24.04;51.19;101648.44;5355699;26;20428;-75
2024/04/13 08:50:45;;;;;;;6.00;2.20;;;20.00;99.90;;;23.36;51.78;101654.13;5398351;26;20012;-77
2024/04/13 08:53:14;;;;;;;4.50;2.30;;;19.90;99.90;;;24.00;51.67;101645.34;5368200;26;20070;-75
2024/04/13 08:55:41;;;;;;;4.82;2.17;;;;;;;23.94;51.11;101635.34;5395999;26;20000;-76
2024/04/13 08:58:08;;;;;;;4.70;2.42;;;20.10;99.90;;;24.03;50.69;101632.84;5360635;26;20000;-75
2024/04/13 09:00:36;;;;;;;4.88;2.63;;;;;;;24.95;49.48;101639.88;5355079;26;20032;-76
2024/04/13 09:03:04;;;;;;;4.28;2.25;;;;;;;25.30;47.50;101631.50;5373388;26;20014;-75
2024/04/13 09:05:31;;;;;;;5.65;1.83;;;;;;;25.01;47.50;101623.94;5371693;26;19996;-74
2024/04/13 09:07:57;;;;;;;6.50;2.00;;;;;;;25.39;48.03;101640.88;5342645;26;20004;-74
2024/04/13 09:10:23;;;;;;;5.30;2.30;;;20.40;99.90;;;24.35;47.71;101617.63;5373591;26;20023;-74
2024/04/13 09:13:05;;;;;;;5.75;1.80;;;20.90;99.90;;;24.76;46.59;101595.09;5365402;26;22924;-74
2024/04/13 09:15:31;;;;;;;4.53;1.67;;;21.00;99.90;;;25.03;45.95;101599.34;5366288;26;19993;-74
2024/04/13 09:17:57;;;;;;;4.22;1.48;;;21.20;99.90;;;24.55;45.33;101611.13;5362498;26;20326;-75
2024/04/13 09:20:24;;;;;;;4.05;1.80;;;21.00;99.90;;;24.58;44.90;101574.28;5365043;26;20000;-76
2024/04/13 09:22:54;;;;;;;4.97;1.48;;;21.10;99.90;;;24.79;43.92;101588.94;5354492;26;20041;-75
2024/04/13 09:25:23;;;;;;;4.25;1.60;;;21.00;99.90;;;24.52;45.21;101593.00;5355156;26;20495;-76
2024/04/13 09:28:02;;;;;;;4.45;1.70;;;21.00;99.90;;;24.70;44.25;101591.47;5364266;26;20008;-76
2024/04/13 09:30:28;;;;;;;3.15;1.45;;;21.10;99.90;;;25.02;43.80;101594.88;5366613;26;19993;-76
2024/04/13 09:33:03;;;;;;;3.50;1.70;;;21.20;99.90;;;25.49;42.91;101572.13;5354838;26;20004;-75
2024/04/13 09:35:29;;;;;;;4.85;1.60;;;;;;;25.94;42.03;101597.03;5364326;26;20015;-74
2024/04/13 09:37:59;;;;;;;4.90;1.70;;;;;;;25.51;41.13;101570.69;5357234;26;20012;-75
2024/04/13 09:40:26;;;;;;;4.47;1.58;;;21.40;99.90;;;24.93;42.75;101577.94;5356376;26;19997;-76
2024/04/13 09:42:52;;;;;;;5.23;1.73;;;21.40;99.90;;;25.40;42.03;101561.56;5348414;26;20001;-76
2024/04/13 09:45:19;;;;;;;5.60;1.80;;;;;;;26.27;41.46;101580.41;5357337;26;20006;-76
2024/04/13 09:47:46;;;;;;;4.05;1.55;;;;;;;26.32;41.76;101579.50;5361692;26;20011;-74
2024/04/13 09:50:12;;;;;;;3.17;1.30;;;;;;;26.53;41.64;101583.66;5349975;26;20015;-74
2024/04/13 09:52:38;;;;;;;5.40;1.80;;;;;;;25.96;41.70;101564.03;5355543;26;20331;-75
2024/04/13 09:55:05;;;;;;;5.15;1.63;;;;;;;26.65;40.29;101562.78;5355672;26;20000;-76
2024/04/13 09:57:31;;;;;;;4.80;1.58;;;;;;;26.07;41.15;101567.53;5367769;26;20042;-75
2024/04/13 09:59:58;;;;;;;5.95;2.00;;;;;;;26.04;41.45;101554.97;5355425;26;20015;-74
2024/04/13 10:02:28;;;;;;;4.88;1.85;;;21.50;99.90;;;26.12;42.19;101559.06;5354510;26;20007;-74
2024/04/13 10:04:54;;;;;;;5.65;1.90;;;;;;;26.42;41.97;101571.81;5376209;26;20001;-75
2024/04/13 10:07:25;;;;;;;4.57;1.90;;;;;;;26.72;41.43;101568.81;5358798;26;20451;-75